Terminal Aerodrome Forecast
Issued by NWS

Home | Current Version | Previous Version | Text Only | Print | Product List | Glossary On
Versions: 1 2 3 4 5 6 7 8 9 10 11 12 13 14 15 16 17 18 19 20 21 22 23 24 25 26 27 28 29 30 31 32 33 34 35 36 37 38 39 40 41 42 43 44 45 46 47
000
FTUS45 KBOU 040052 AAA
TAFAPA
TAF AMD
KAPA 040052Z 0401/0424 04013KT P6SM -SHRA SCT070 BKN100 OVC200
      TEMPO 0401/0402 VRB15G25KT BKN070
     FM040200 09010KT P6SM VCSH BKN060 BKN080
      TEMPO 0403/0406 -SHRA BKN050
     FM040600 28007KT P6SM -SHRA BKN030 OVC045
      TEMPO 0408/0411 3SM -RA BR BKN025
     FM041100 05006KT 1 1/2SM -RA BR BKN008 OVC014
     FM041600 09007KT 3SM BR VCSH BKN018 OVC025
     FM042000 13007KT P6SM VCTS BKN045 BKN060CB
      TEMPO 0421/0424 3SM -TSRA BKN035CB=

USA.gov is the U.S. government's official web portal to all federal, state and local government web resources and services.